WetterOnline ( https://www.wetteronline.de )

Wetter aktuell Mühldorf

Aktuelles Wetter: Mühldorf am Inn (410m)

6-stündlich | Neueste Meldungen
Ortszeit Temperatur Wetter
Mi, 07.12. 1:00 2.8° C bedeckt
Di, 06.12. 19:00 2.8° C bedeckt
Di, 06.12. 13:00 4.4° C bedeckt
Di, 06.12. 7:00 0.9° C bedeckt
Di, 06.12. 1:00 2.4° C leicht bewölkt
Mo, 05.12. 19:00 3.4° C leichter Regen
Mo, 05.12. 13:00 3.0° C bedeckt
Mo, 05.12. 7:00 1.4° C bewölkt
Ortszeit Temperatur Wetter
Mi, 07.12. 2:00 2.4° C bedeckt
Mi, 07.12. 1:40 2.5° C bedeckt
Mi, 07.12. 1:30 2.7° C bedeckt
Mi, 07.12. 1:20 2.7° C bedeckt
Mi, 07.12. 1:10 2.8° C bewölkt
Mi, 07.12. 1:00 2.8° C bedeckt
Mi, 07.12. 0:50 2.8° C bedeckt
Mi, 07.12. 0:30 2.7° C bedeckt
Mi, 07.12. 0:00 2.8° C bedeckt
Di, 06.12. 23:30 2.9° C bedeckt
Di, 06.12. 23:00 2.9° C bedeckt
Ortszeit Relative Feuchte Sichtweite
Mi, 07.12. 1:00 92% 15 km
Di, 06.12. 19:00 90% 23 km
Di, 06.12. 13:00 83% 25 km
Di, 06.12. 7:00 99% 3.6 km
Di, 06.12. 1:00 97% 16 km
Mo, 05.12. 19:00 99% 2.5 km
Mo, 05.12. 13:00 93% 7 km
Mo, 05.12. 7:00 95% 7 km
Ortszeit Relative Feuchte Sichtweite
Mi, 07.12. 2:00 92% 17 km
Mi, 07.12. 1:40 91% -
Mi, 07.12. 1:30 92% 18 km
Mi, 07.12. 1:20 92% -
Mi, 07.12. 1:10 90% -
Mi, 07.12. 1:00 92% 15 km
Mi, 07.12. 0:50 92% -
Mi, 07.12. 0:30 93% 14 km
Mi, 07.12. 0:00 92% 15 km
Di, 06.12. 23:30 92% 11 km
Di, 06.12. 23:00 93% 11 km
Ortszeit Niederschlagsmenge Niederschlagsart
Mi, 07.12. 1:00 0.1 l/m2 in 6 Std. Regen
Di, 06.12. 19:00 0.0 l/m2 in 12 Std. -
Di, 06.12. 13:00 0.0 l/m2 in 6 Std. -
Di, 06.12. 7:00 3 l/m2 in 12 Std. Regen
Di, 06.12. 1:00 3 l/m2 in 6 Std. Regen
Mo, 05.12. 19:00 2 l/m2 in 12 Std. Regen
Mo, 05.12. 13:00 0.0 l/m2 in 6 Std. -
Mo, 05.12. 7:00 0.0 l/m2 in 12 Std. -
Ortszeit Niederschlagsmenge Niederschlagsart
Mi, 07.12. 2:00 0.0 l/m2 in 1 Std. -
Mi, 07.12. 1:40 keine Meldung -
Mi, 07.12. 1:30 0.0 l/m2 in 30 Min -
Mi, 07.12. 1:20 keine Meldung -
Mi, 07.12. 1:10 keine Meldung -
Mi, 07.12. 1:00 0.0 l/m2 in 1 Std. Regen
Mi, 07.12. 0:50 keine Meldung -
Mi, 07.12. 0:30 0.0 l/m2 in 30 Min -
Mi, 07.12. 0:00 0.0 l/m2 in 1 Std. -
Di, 06.12. 23:30 0.0 l/m2 in 30 Min -
Di, 06.12. 23:00 <0.05 l/m2 in 1 Std. Regen
Ortszeit Stärke Spitze Richtung
km/h Bft. km/h Grad Sektor
Mi, 07.12. 1:00 7 2 22 280° W
Di, 06.12. 19:00 6 1 13 270° W
Di, 06.12. 13:00 4 1 11 260° W
Di, 06.12. 7:00 4 1 7 320° NW
Di, 06.12. 1:00 2 1 30 220° SW
Mo, 05.12. 19:00 4 1 7 280° W
Mo, 05.12. 13:00 4 1 18 260° W
Mo, 05.12. 7:00 13 3 26 280° W
Ortszeit Stärke Spitze Richtung
km/h Bft. km/h Grad Sektor
Mi, 07.12. 2:00 7 2 14 280° W
Mi, 07.12. 1:40 7 2 - 280° W
Mi, 07.12. 1:30 9 2 13 280° W
Mi, 07.12. 1:20 9 2 - 280° W
Mi, 07.12. 1:10 9 2 - 280° W
Mi, 07.12. 1:00 7 2 14 280° W
Mi, 07.12. 0:50 7 2 - 280° W
Mi, 07.12. 0:30 7 2 11 280° W
Mi, 07.12. 0:00 9 2 19 280° W
Di, 06.12. 23:30 13 3 19 270° W
Di, 06.12. 23:00 13 3 19 280° W
Ortszeit Untergrenze Bedeckung Gattung
total tief tief mittel hoch
Mi, 07.12. 1:00 330 m 8/8 8/8 - - -
Di, 06.12. 19:00 840 m 8/8 8/8 - - -
Di, 06.12. 13:00 510 m 8/8 8/8 - - -
Di, 06.12. 7:00 1380 m 8/8 8/8 - - -
Di, 06.12. 1:00 630 m 4/8 4/8 - - -
Mo, 05.12. 19:00 60 m 7/8 7/8 - - -
Mo, 05.12. 13:00 150 m 8/8 8/8 - - -
Mo, 05.12. 7:00 120 m 7/8 7/8 - - -
Ortszeit Bedeckungsgrad in Achtel und Wolkenuntergrenze
Mi, 07.12. 2:00 5(780m) 8(1500m)
Mi, 07.12. 1:40 8
Mi, 07.12. 1:30 5(300m) 6(510m) 8(630m)
Mi, 07.12. 1:20 5(300m) 6(510m) 8(630m)
Mi, 07.12. 1:10 7
Mi, 07.12. 1:00 4(330m) 7(480m) 8(630m)
Mi, 07.12. 0:50 4(330m) 7(480m) 8(630m)
Mi, 07.12. 0:30 6(270m) 7(480m) 8(1500m)
Mi, 07.12. 0:00 6(330m) 7(510m) 8(660m)
Di, 06.12. 23:30 6(270m) 8(450m)
Di, 06.12. 23:00 8(240m)
Ortszeit Luftdruck NN (hPa) Tendenz (hPa in 3 Std.)
Mi, 07.12. 1:00 1018 0,0
Di, 06.12. 19:00 1018 - 0,1
Di, 06.12. 13:00 1019 - 1,0
Di, 06.12. 7:00 1020 - 0,3
Di, 06.12. 1:00 1021 - 0,3
Mo, 05.12. 19:00 1021 + 0,7
Mo, 05.12. 13:00 1021 - 0,1
Mo, 05.12. 7:00 1020 + 1,8
Ortszeit Luftdruck NN (hPa) Tendenz (hPa in 3 Std.)
Mi, 07.12. 2:00 1018 0,0
Mi, 07.12. 1:40 1018 keine Meldung
Mi, 07.12. 1:30 1018 + 0,1
Mi, 07.12. 1:20 1018 keine Meldung
Mi, 07.12. 1:10 1018 keine Meldung
Mi, 07.12. 1:00 1018 0,0
Mi, 07.12. 0:50 1018 keine Meldung
Mi, 07.12. 0:30 1018 + 0,1
Mi, 07.12. 0:00 1018 0,0
Di, 06.12. 23:30 1018 + 0,1
Di, 06.12. 23:00 1018 0,0
Ortszeit Schneehöhe (cm)
Mi, 07.12. 1:00 0
Di, 06.12. 19:00 0
Di, 06.12. 13:00 0
Di, 06.12. 7:00 0
Di, 06.12. 1:00 0
Mo, 05.12. 19:00 0
Mo, 05.12. 13:00 0
Mo, 05.12. 7:00 0
Ortszeit Schneehöhe (cm)
Mi, 07.12. 2:00 0
Mi, 07.12. 1:40 0
Mi, 07.12. 1:30 0
Mi, 07.12. 1:20 0
Mi, 07.12. 1:10 0
Mi, 07.12. 1:00 0
Mi, 07.12. 0:50 0
Mi, 07.12. 0:30 0
Mi, 07.12. 0:00 0
Di, 06.12. 23:30 0
Di, 06.12. 23:00 0
Link zu dieser Seite / Seite empfehlen

Das Wetter in ...